createdAt,value
2022-12-12T00:00:09.405Z,87.58
2022-12-12T00:02:40.418Z,87.46
2022-12-12T00:05:09.273Z,87.07
2022-12-12T00:07:36.056Z,87.83
2022-12-12T00:10:04.591Z,87.23
2022-12-12T00:12:31.191Z,86.81
2022-12-12T00:14:58.018Z,87.13
2022-12-12T00:17:24.725Z,87.05
2022-12-12T00:19:51.330Z,86.95
2022-12-12T00:22:17.969Z,87.00
2022-12-12T00:24:44.581Z,87.28
2022-12-12T00:27:11.175Z,87.30
2022-12-12T00:29:37.814Z,87.56
2022-12-12T00:32:04.794Z,87.17
2022-12-12T00:34:31.409Z,86.57
2022-12-12T00:36:58.007Z,85.32
2022-12-12T00:39:24.589Z,85.95
2022-12-12T00:41:51.144Z,85.79
2022-12-12T00:44:19.069Z,86.39
2022-12-12T00:46:45.696Z,86.48
2022-12-12T00:49:13.178Z,85.32
2022-12-12T00:51:40.094Z,85.47
2022-12-12T00:54:06.795Z,85.49
2022-12-12T00:56:33.492Z,85.91
2022-12-12T00:59:02.571Z,86.19
2022-12-12T01:01:31.258Z,85.68
2022-12-12T01:03:58.964Z,85.15
2022-12-12T01:06:26.127Z,85.73
2022-12-12T01:08:53.359Z,85.83
2022-12-12T01:11:20.593Z,86.04
2022-12-12T01:13:49.146Z,85.49
2022-12-12T01:16:15.777Z,84.97
2022-12-12T01:18:43.118Z,85.56
2022-12-12T01:21:11.774Z,86.58
2022-12-12T01:23:39.376Z,86.80
2022-12-12T01:26:09.757Z,87.35
2022-12-12T01:28:36.967Z,87.81
2022-12-12T01:31:04.023Z,87.75
2022-12-12T01:33:30.787Z,88.22
2022-12-12T01:35:57.708Z,86.83
2022-12-12T01:38:24.755Z,87.24
2022-12-12T01:40:52.549Z,87.05
2022-12-12T01:43:20.716Z,85.96
2022-12-12T01:46:00.156Z,85.26
2022-12-12T01:48:31.498Z,85.60
2022-12-12T01:51:01.158Z,86.03
2022-12-12T01:53:30.035Z,85.73
2022-12-12T01:55:58.664Z,86.14
2022-12-12T01:58:25.873Z,86.00
2022-12-12T02:00:52.511Z,86.68
2022-12-12T02:03:19.111Z,86.25
2022-12-12T02:05:52.188Z,85.95
2022-12-12T02:08:22.431Z,86.19
2022-12-12T02:10:49.772Z,86.37
2022-12-12T02:13:20.718Z,86.11
2022-12-12T02:15:56.565Z,86.64
2022-12-12T02:18:43.546Z,86.80
2022-12-12T02:21:23.060Z,86.98
2022-12-12T02:24:25.921Z,87.55
2022-12-12T02:27:01.677Z,86.17
2022-12-12T02:29:50.041Z,87.74
2022-12-12T02:32:29.890Z,88.02
2022-12-12T02:35:14.714Z,87.70
2022-12-12T02:37:50.922Z,87.17
2022-12-12T02:40:46.687Z,87.94
2022-12-12T02:43:49.937Z,88.47
2022-12-12T02:46:33.126Z,87.58
2022-12-12T02:49:23.022Z,87.94
2022-12-12T02:51:51.327Z,88.09
2022-12-12T02:54:21.778Z,87.70
2022-12-12T02:56:59.981Z,87.55
2022-12-12T02:59:34.213Z,87.49
2022-12-12T03:02:22.341Z,87.21
2022-12-12T03:05:58.187Z,87.39
2022-12-12T03:08:43.286Z,87.97
2022-12-12T03:11:39.053Z,87.83
2022-12-12T03:14:30.845Z,87.43
2022-12-12T03:17:10.545Z,87.91
2022-12-12T03:20:04.602Z,87.78
2022-12-12T03:22:42.918Z,88.30
2022-12-12T03:25:19.076Z,86.94
2022-12-12T03:28:09.534Z,87.92
2022-12-12T03:30:45.642Z,87.76
2022-12-12T03:33:22.044Z,87.79
2022-12-12T03:36:17.960Z,87.40
2022-12-12T03:38:57.047Z,87.63
2022-12-12T03:41:30.635Z,87.87
2022-12-12T03:44:07.624Z,88.02
2022-12-12T03:46:44.152Z,88.82
2022-12-12T03:49:13.516Z,88.77
2022-12-12T03:51:47.449Z,89.57
2022-12-12T03:54:29.861Z,90.22
2022-12-12T03:57:04.858Z,88.98
2022-12-12T03:59:53.472Z,88.52
2022-12-12T04:02:24.153Z,88.11
2022-12-12T04:05:06.235Z,88.07
2022-12-12T04:07:46.083Z,88.70
2022-12-12T04:10:31.158Z,88.22
2022-12-12T04:13:42.317Z,87.34
2022-12-12T04:16:17.098Z,87.38
2022-12-12T04:19:06.747Z,86.24
2022-12-12T04:21:58.853Z,86.13
2022-12-12T04:24:46.731Z,86.53
2022-12-12T04:27:42.909Z,85.06
2022-12-12T04:30:12.979Z,85.03
2022-12-12T04:32:45.219Z,85.53
2022-12-12T04:35:19.896Z,85.25
2022-12-12T04:37:51.019Z,85.79
2022-12-12T04:40:31.075Z,85.17
2022-12-12T04:43:10.308Z,86.04
2022-12-12T04:45:42.280Z,85.34
2022-12-12T04:48:19.285Z,85.68
2022-12-12T04:50:50.635Z,86.27
2022-12-12T04:53:22.454Z,87.10
2022-12-12T04:55:55.619Z,86.95
2022-12-12T04:58:23.009Z,87.12
2022-12-12T05:01:03.956Z,86.89
2022-12-12T05:03:41.299Z,88.48
2022-12-12T05:06:12.438Z,88.00
2022-12-12T05:08:43.339Z,88.43
2022-12-12T05:11:11.430Z,87.95
2022-12-12T05:13:41.086Z,87.32
2022-12-12T05:16:18.884Z,88.54
2022-12-12T05:18:46.061Z,88.11
2022-12-12T05:21:13.322Z,87.57
2022-12-12T05:23:40.105Z,87.91
2022-12-12T05:26:19.719Z,88.91
2022-12-12T05:28:46.324Z,88.22
2022-12-12T05:31:13.031Z,87.98
2022-12-12T05:33:39.763Z,88.21
2022-12-12T05:36:06.800Z,87.90
2022-12-12T05:38:33.825Z,88.56
2022-12-12T05:41:00.504Z,87.40
2022-12-12T05:43:27.325Z,88.25
2022-12-12T05:45:54.134Z,87.15
2022-12-12T05:48:24.254Z,87.32
2022-12-12T05:50:52.369Z,87.61
2022-12-12T05:53:19.274Z,88.34
2022-12-12T05:55:45.983Z,88.23
2022-12-12T05:58:12.587Z,88.13
2022-12-12T06:00:39.197Z,87.40
2022-12-12T06:03:06.053Z,87.66
2022-12-12T06:05:32.615Z,88.45
2022-12-12T06:07:59.307Z,88.86
2022-12-12T06:10:25.991Z,89.15
2022-12-12T06:12:52.609Z,88.37
2022-12-12T06:15:19.318Z,88.64
2022-12-12T06:17:45.931Z,88.57
2022-12-12T06:20:12.499Z,88.73
2022-12-12T06:22:39.381Z,88.16
2022-12-12T06:25:06.282Z,88.44
2022-12-12T06:27:32.957Z,89.59
2022-12-12T06:29:59.544Z,89.05
2022-12-12T06:32:26.170Z,88.03
2022-12-12T06:34:53.227Z,87.91
2022-12-12T06:37:20.008Z,88.13
2022-12-12T06:39:47.086Z,88.23
2022-12-12T06:42:13.728Z,87.71
2022-12-12T06:44:40.343Z,88.41
2022-12-12T06:47:06.910Z,89.25
2022-12-12T06:49:33.512Z,89.36
2022-12-12T06:52:00.092Z,87.89
2022-12-12T06:54:26.779Z,88.57
2022-12-12T06:56:53.364Z,88.78
2022-12-12T06:59:20.030Z,88.84
2022-12-12T07:01:47.025Z,88.67
2022-12-12T07:04:14.689Z,88.87
2022-12-12T07:06:41.605Z,88.33
2022-12-12T07:09:08.888Z,88.56
2022-12-12T07:11:35.533Z,88.59
2022-12-12T07:14:05.533Z,88.54
2022-12-12T07:16:32.096Z,88.89
2022-12-12T07:18:58.714Z,88.68
2022-12-12T07:21:25.399Z,88.73
2022-12-12T07:23:52.106Z,88.21
2022-12-12T07:26:20.776Z,86.93
2022-12-12T07:28:48.120Z,87.19
2022-12-12T07:31:18.112Z,88.21
2022-12-12T07:33:45.543Z,87.96
2022-12-12T07:36:14.713Z,88.09
2022-12-12T07:38:41.979Z,87.69
2022-12-12T07:41:12.396Z,86.46
2022-12-12T07:43:43.787Z,86.56
2022-12-12T07:46:14.989Z,87.18
2022-12-12T07:48:42.012Z,86.78
2022-12-12T07:51:08.611Z,86.76
2022-12-12T07:53:35.337Z,86.65
2022-12-12T07:56:05.901Z,86.73
2022-12-12T07:58:32.481Z,87.51
2022-12-12T08:00:59.078Z,87.23
2022-12-12T08:03:25.704Z,86.64
2022-12-12T08:05:52.286Z,86.13
2022-12-12T08:08:18.867Z,85.73
2022-12-12T08:10:45.529Z,85.86
2022-12-12T08:13:12.134Z,85.96
2022-12-12T08:15:38.872Z,85.17
2022-12-12T08:18:05.610Z,85.72
2022-12-12T08:20:32.296Z,87.11
2022-12-12T08:22:59.438Z,86.02
2022-12-12T08:25:26.043Z,86.22
2022-12-12T08:27:52.635Z,86.55
2022-12-12T08:30:19.481Z,85.26
2022-12-12T08:32:46.100Z,85.08
2022-12-12T08:35:12.924Z,84.19
2022-12-12T08:37:39.764Z,84.92
2022-12-12T08:40:07.119Z,84.31
2022-12-12T08:42:33.803Z,84.13
2022-12-12T08:45:00.415Z,82.52
2022-12-12T08:47:27.304Z,83.31
2022-12-12T08:49:53.931Z,82.64
2022-12-12T08:52:20.550Z,83.38
2022-12-12T08:54:47.219Z,83.81
2022-12-12T08:57:13.794Z,82.84
2022-12-12T08:59:41.497Z,83.48
2022-12-12T09:02:11.990Z,81.96
2022-12-12T09:04:38.823Z,81.75
2022-12-12T09:07:08.631Z,81.22
2022-12-12T09:09:35.502Z,81.70
2022-12-12T09:12:02.267Z,80.76
2022-12-12T09:14:28.876Z,80.04
2022-12-12T09:16:55.586Z,79.75
2022-12-12T09:19:22.218Z,78.84
2022-12-12T09:21:48.822Z,79.22
2022-12-12T09:24:15.432Z,79.10
2022-12-12T09:26:42.291Z,78.89
2022-12-12T09:29:10.703Z,77.06
2022-12-12T09:31:37.347Z,77.48
2022-12-12T09:34:04.000Z,77.36
2022-12-12T09:36:30.642Z,77.71
2022-12-12T09:38:57.227Z,76.25
2022-12-12T09:41:30.682Z,76.45
2022-12-12T09:44:09.852Z,75.91
2022-12-12T09:46:47.589Z,76.17
2022-12-12T09:49:21.412Z,76.07
2022-12-12T09:51:50.781Z,76.72
2022-12-12T09:54:20.792Z,76.11
2022-12-12T09:57:17.701Z,76.24
2022-12-12T09:59:54.638Z,75.70
2022-12-12T10:02:46.328Z,75.10
2022-12-12T10:05:21.720Z,75.32
2022-12-12T10:08:03.626Z,74.54
2022-12-12T10:10:55.432Z,75.28
2022-12-12T10:13:27.005Z,73.79
2022-12-12T10:16:03.142Z,74.27
2022-12-12T10:18:40.114Z,74.77
2022-12-12T10:21:22.495Z,74.54
2022-12-12T10:23:53.580Z,74.66
2022-12-12T10:26:30.706Z,74.67
2022-12-12T10:29:11.966Z,73.56
2022-12-12T10:32:08.908Z,74.64
2022-12-12T10:34:48.733Z,74.95
2022-12-12T10:37:33.274Z,74.50
2022-12-12T10:40:16.707Z,74.12
2022-12-12T10:42:58.399Z,74.19
2022-12-12T10:45:30.768Z,75.17
2022-12-12T10:47:57.466Z,75.21
2022-12-12T10:50:45.741Z,74.84
2022-12-12T10:53:12.830Z,74.53
2022-12-12T10:55:53.512Z,73.59
2022-12-12T10:58:24.871Z,74.18
2022-12-12T11:01:00.272Z,73.23
2022-12-12T11:03:32.489Z,73.72
2022-12-12T11:06:05.218Z,72.27
2022-12-12T11:08:34.988Z,72.23
2022-12-12T11:11:28.745Z,72.48
2022-12-12T11:14:00.636Z,73.91
2022-12-12T11:16:28.649Z,73.96
2022-12-12T11:19:07.217Z,72.70
2022-12-12T11:21:36.633Z,73.22
2022-12-12T11:24:08.361Z,73.35
2022-12-12T11:27:03.239Z,73.84
2022-12-12T11:29:55.847Z,73.56
2022-12-12T11:32:27.156Z,72.17
2022-12-12T11:34:58.232Z,72.13
2022-12-12T11:37:29.062Z,72.86
2022-12-12T11:39:57.098Z,71.58
2022-12-12T11:42:28.180Z,71.03
2022-12-12T11:45:21.871Z,70.91
2022-12-12T11:47:49.124Z,71.53
2022-12-12T11:50:28.411Z,71.14
2022-12-12T11:52:58.381Z,72.79
2022-12-12T11:55:37.282Z,73.39
2022-12-12T11:58:25.827Z,71.88
2022-12-12T12:01:16.803Z,71.51
2022-12-12T12:04:12.661Z,71.49
2022-12-12T12:06:54.811Z,71.58
2022-12-12T12:09:42.151Z,71.36
2022-12-12T12:12:17.643Z,71.45
2022-12-12T12:14:59.377Z,70.73
2022-12-12T12:17:37.849Z,70.92
2022-12-12T12:20:04.442Z,70.56
2022-12-12T12:22:33.757Z,70.09
2022-12-12T12:25:25.057Z,70.16
2022-12-12T12:28:00.291Z,68.44
2022-12-12T12:30:38.987Z,69.41
2022-12-12T12:33:17.519Z,69.67
2022-12-12T12:35:49.871Z,70.09
2022-12-12T12:38:58.385Z,69.89
2022-12-12T12:41:54.829Z,69.90
2022-12-12T12:44:43.142Z,70.20
2022-12-12T12:47:33.629Z,71.42
2022-12-12T12:50:17.830Z,70.50
2022-12-12T12:53:10.819Z,70.94
2022-12-12T12:55:44.496Z,70.56
2022-12-12T12:58:20.950Z,69.90
2022-12-12T13:01:05.209Z,68.89
2022-12-12T13:04:18.285Z,67.91
2022-12-12T13:06:53.881Z,68.89
2022-12-12T13:09:53.498Z,69.59
2022-12-12T13:12:35.875Z,70.03
2022-12-12T13:15:28.236Z,70.11
2022-12-12T13:18:01.555Z,70.02
2022-12-12T13:20:33.131Z,71.77
2022-12-12T13:23:26.821Z,70.83
2022-12-12T13:26:17.774Z,71.49
2022-12-12T13:28:53.686Z,71.24
2022-12-12T13:31:39.326Z,71.32
2022-12-12T13:34:14.747Z,72.14
2022-12-12T13:36:48.680Z,71.42
2022-12-12T13:39:28.857Z,70.87
2022-12-12T13:41:57.069Z,70.66
2022-12-12T13:44:35.861Z,70.70
2022-12-12T13:47:04.911Z,71.02
2022-12-12T13:49:48.500Z,70.72
2022-12-12T13:52:32.043Z,70.41
2022-12-12T13:55:13.879Z,71.82
2022-12-12T13:58:08.215Z,71.85
2022-12-12T14:00:39.952Z,71.02
2022-12-12T14:03:12.511Z,72.06
2022-12-12T14:05:51.197Z,72.75
2022-12-12T14:08:18.211Z,73.13
2022-12-12T14:11:00.041Z,72.22
2022-12-12T14:13:31.076Z,73.27
2022-12-12T14:15:57.744Z,73.85
2022-12-12T14:18:41.562Z,74.00
2022-12-12T14:21:14.560Z,73.76
2022-12-12T14:23:49.401Z,74.42
2022-12-12T14:26:27.903Z,75.45
2022-12-12T14:29:16.273Z,74.81
2022-12-12T14:32:10.661Z,74.57
2022-12-12T14:34:46.225Z,75.68
2022-12-12T14:37:40.826Z,75.00
2022-12-12T14:40:44.653Z,74.81
2022-12-12T14:43:23.339Z,74.53
2022-12-12T14:45:50.065Z,75.02
2022-12-12T14:48:25.128Z,76.05
2022-12-12T14:51:09.446Z,76.60
2022-12-12T14:53:38.808Z,76.93
2022-12-12T14:56:12.691Z,77.20
2022-12-12T14:58:44.895Z,77.19
2022-12-12T15:01:12.066Z,78.57
2022-12-12T15:03:45.917Z,78.88
2022-12-12T15:06:26.313Z,79.27
2022-12-12T15:08:53.619Z,79.60
2022-12-12T15:11:27.753Z,80.79
2022-12-12T15:13:57.148Z,81.73
2022-12-12T15:16:35.900Z,81.95
2022-12-12T15:19:02.899Z,82.51
2022-12-12T15:21:33.032Z,82.86
2022-12-12T15:23:59.936Z,82.61
2022-12-12T15:26:30.813Z,83.22
2022-12-12T15:28:58.030Z,83.29
2022-12-12T15:31:25.418Z,83.91
2022-12-12T15:33:52.224Z,83.42
2022-12-12T15:36:28.249Z,84.32
2022-12-12T15:39:16.517Z,83.91
2022-12-12T15:41:44.816Z,83.77
2022-12-12T15:44:18.070Z,84.38
2022-12-12T15:46:47.580Z,85.05
2022-12-12T15:49:38.218Z,85.06
2022-12-12T15:52:17.184Z,85.36
2022-12-12T15:54:56.191Z,86.52
2022-12-12T15:57:28.662Z,85.83
2022-12-12T15:59:58.003Z,85.48
2022-12-12T16:02:27.950Z,85.39
2022-12-12T16:05:01.305Z,85.05
2022-12-12T16:07:29.188Z,85.68
2022-12-12T16:10:02.040Z,84.44
2022-12-12T16:13:20.889Z,85.61
2022-12-12T16:15:47.647Z,85.46
2022-12-12T16:18:14.197Z,85.14
2022-12-12T16:20:48.162Z,85.00
2022-12-12T16:23:18.035Z,85.34
2022-12-12T16:25:44.603Z,84.88
2022-12-12T16:28:25.633Z,85.34
2022-12-12T16:30:59.390Z,85.54
2022-12-12T16:33:31.791Z,86.15
2022-12-12T16:36:01.296Z,85.55
2022-12-12T16:38:29.492Z,85.33
2022-12-12T16:41:05.143Z,85.42
2022-12-12T16:43:31.827Z,85.22
2022-12-12T16:45:58.578Z,83.91
2022-12-12T16:48:32.451Z,84.03
2022-12-12T16:51:03.057Z,83.16
2022-12-12T16:53:29.751Z,84.21
2022-12-12T16:55:56.968Z,85.23
2022-12-12T16:58:23.643Z,85.23
2022-12-12T17:00:52.803Z,84.03
2022-12-12T17:03:21.793Z,85.03
2022-12-12T17:05:49.097Z,86.31
2022-12-12T17:08:17.139Z,87.09
2022-12-12T17:10:45.767Z,87.34
2022-12-12T17:13:18.846Z,86.71
2022-12-12T17:15:46.146Z,86.42
2022-12-12T17:18:14.065Z,86.89
2022-12-12T17:20:41.559Z,87.10
2022-12-12T17:23:29.197Z,85.51
2022-12-12T17:26:03.170Z,85.22
2022-12-12T17:28:32.762Z,85.82
2022-12-12T17:30:59.478Z,85.75
2022-12-12T17:33:26.663Z,86.17
2022-12-12T17:36:06.831Z,86.94
2022-12-12T17:38:33.872Z,86.48
2022-12-12T17:41:04.976Z,87.75
2022-12-12T17:43:31.657Z,86.59
2022-12-12T17:46:01.771Z,85.81
2022-12-12T17:48:34.079Z,85.95
2022-12-12T17:51:06.290Z,85.85
2022-12-12T17:53:38.484Z,86.54
2022-12-12T17:56:13.371Z,87.24
2022-12-12T17:58:42.884Z,86.30
2022-12-12T18:01:09.594Z,85.55
2022-12-12T18:03:37.170Z,84.99
2022-12-12T18:06:04.323Z,83.13
2022-12-12T18:08:31.066Z,83.06
2022-12-12T18:10:58.601Z,84.15
2022-12-12T18:13:26.814Z,84.80
2022-12-12T18:15:58.216Z,86.50
2022-12-12T18:18:28.330Z,85.32
2022-12-12T18:20:56.687Z,84.36
2022-12-12T18:23:23.365Z,84.89
2022-12-12T18:25:50.153Z,84.83
2022-12-12T18:28:16.880Z,84.58
2022-12-12T18:30:43.673Z,85.07
2022-12-12T18:33:10.500Z,86.82
2022-12-12T18:35:37.211Z,85.99
2022-12-12T18:38:03.999Z,85.61
2022-12-12T18:40:30.950Z,85.58
2022-12-12T18:42:57.701Z,84.75
2022-12-12T18:45:24.421Z,84.62
2022-12-12T18:47:51.042Z,84.84
2022-12-12T18:50:17.952Z,84.46
2022-12-12T18:52:44.648Z,85.08
2022-12-12T18:55:11.510Z,87.19
2022-12-12T18:57:38.119Z,86.38
2022-12-12T19:00:08.544Z,87.35
2022-12-12T19:02:38.491Z,87.03
2022-12-12T19:05:06.908Z,87.54
2022-12-12T19:07:33.839Z,87.04
2022-12-12T19:10:00.503Z,87.67
2022-12-12T19:12:28.009Z,87.78
2022-12-12T19:17:43.245Z,86.57
2022-12-12T19:20:12.996Z,87.66
2022-12-12T19:22:45.273Z,88.33
2022-12-12T19:25:17.798Z,90.19
2022-12-12T19:27:45.127Z,91.24
2022-12-12T19:30:13.454Z,89.42
2022-12-12T19:32:41.866Z,90.54
2022-12-12T19:35:10.136Z,90.97
2022-12-12T19:37:37.363Z,91.13
2022-12-12T19:40:04.369Z,91.87
2022-12-12T19:42:31.359Z,92.29
2022-12-12T19:44:58.310Z,91.77
2022-12-12T19:47:25.739Z,90.18
2022-12-12T19:49:52.692Z,88.97
2022-12-12T19:52:19.782Z,89.47
2022-12-12T19:54:46.359Z,90.47
2022-12-12T19:57:13.018Z,95.79
2022-12-12T19:59:39.683Z,97.65
2022-12-12T20:02:07.168Z,96.32
2022-12-12T20:04:33.977Z,95.50
2022-12-12T20:07:01.238Z,96.96
2022-12-12T20:09:29.901Z,96.81
2022-12-12T20:11:58.155Z,96.30
2022-12-12T20:14:33.516Z,97.10
2022-12-12T20:17:00.415Z,96.83
2022-12-12T20:19:27.890Z,97.49
2022-12-12T20:22:03.752Z,96.23
2022-12-12T20:24:32.764Z,97.36
2022-12-12T20:27:00.129Z,96.24
2022-12-12T20:29:28.328Z,96.04
2022-12-12T20:32:00.324Z,96.70
2022-12-12T20:34:28.442Z,96.07
2022-12-12T20:36:55.816Z,96.32
2022-12-12T20:39:24.664Z,95.19
2022-12-12T20:41:53.218Z,96.03
2022-12-12T20:44:19.883Z,95.49
2022-12-12T20:46:47.114Z,95.45
2022-12-12T20:49:17.116Z,94.47
2022-12-12T20:52:00.164Z,94.55
2022-12-12T20:54:28.800Z,93.99
2022-12-12T20:56:56.392Z,94.15
2022-12-12T20:59:23.826Z,94.11
2022-12-12T21:01:53.702Z,92.76
2022-12-12T21:04:22.046Z,93.50
2022-12-12T21:06:49.639Z,93.81
2022-12-12T21:09:23.873Z,93.66
2022-12-12T21:11:56.844Z,94.36
2022-12-12T21:14:25.023Z,94.85
2022-12-12T21:16:52.467Z,93.53
2022-12-12T21:19:19.256Z,94.19
2022-12-12T21:21:46.295Z,94.39
2022-12-12T21:24:15.825Z,93.54
2022-12-12T21:26:42.846Z,93.26
2022-12-12T21:29:09.603Z,91.26
2022-12-12T21:31:41.318Z,90.71
2022-12-12T21:34:12.033Z,91.35
2022-12-12T21:36:38.632Z,89.74
2022-12-12T21:39:07.050Z,87.96
2022-12-12T21:41:34.984Z,88.10
2022-12-12T21:44:01.853Z,87.89
2022-12-12T21:46:29.762Z,89.38
2022-12-12T21:49:16.692Z,87.82
2022-12-12T21:51:44.496Z,89.09
2022-12-12T21:54:13.663Z,88.45
2022-12-12T21:56:41.125Z,87.53
2022-12-12T21:59:08.005Z,88.67
2022-12-12T22:01:34.702Z,88.98
2022-12-12T22:04:01.715Z,87.82
2022-12-12T22:06:31.246Z,88.09
2022-12-12T22:08:59.575Z,89.12
2022-12-12T22:11:42.309Z,88.72
2022-12-12T22:14:17.926Z,86.82
2022-12-12T22:16:45.102Z,87.56
2022-12-12T22:19:13.360Z,86.72
2022-12-12T22:21:40.584Z,90.62
2022-12-12T22:24:07.552Z,88.04
2022-12-12T22:26:36.887Z,87.83
2022-12-12T22:29:09.873Z,89.73
2022-12-12T22:31:38.414Z,87.54
2022-12-12T22:34:08.234Z,91.18
2022-12-12T22:36:37.009Z,91.87
2022-12-12T22:39:05.504Z,90.62
2022-12-12T22:41:32.572Z,91.06
2022-12-12T22:44:04.238Z,89.80
2022-12-12T22:46:32.007Z,89.40
2022-12-12T22:49:00.871Z,90.53
2022-12-12T22:51:30.489Z,90.52
2022-12-12T22:54:02.642Z,90.87
2022-12-12T22:56:30.534Z,91.68
2022-12-12T22:58:57.552Z,90.84
2022-12-12T23:01:26.160Z,87.82
2022-12-12T23:03:53.874Z,88.26
2022-12-12T23:06:31.892Z,86.84
2022-12-12T23:09:07.164Z,88.24
2022-12-12T23:11:35.122Z,87.44
2022-12-12T23:14:05.354Z,86.37
2022-12-12T23:16:34.473Z,87.03
2022-12-12T23:19:04.185Z,90.39
2022-12-12T23:21:30.853Z,92.95
2022-12-12T23:23:57.460Z,89.30
2022-12-12T23:26:26.809Z,87.72
2022-12-12T23:28:53.426Z,86.20
2022-12-12T23:31:23.691Z,88.67
2022-12-12T23:34:20.915Z,86.65
2022-12-12T23:36:47.771Z,86.59
2022-12-12T23:39:14.393Z,86.55
2022-12-12T23:41:41.697Z,86.06
2022-12-12T23:44:08.781Z,85.51
2022-12-12T23:46:36.494Z,86.17
2022-12-12T23:49:08.507Z,86.20
2022-12-12T23:51:38.745Z,85.92
2022-12-12T23:54:09.090Z,85.63
2022-12-12T23:56:36.508Z,86.72
2022-12-12T23:59:03.634Z,85.58
